logo
Rechercher aéroport 
image banner adimage banner adimage banner ad
image banner ad

SIQN - Chica Doce

Situé à Pindoretama, Brazil

ICAO - SIQN, IATA -

Données fournies par Airmate  

Information générale

Coordonnées: S4°2'38" W38°19'40"
Élévation : 118 feet MSL.
Variation magnétique : -20.802972426° East
Voir autres Aéroports à Ceará

Données opérationnelles

Special qualification required
Heure actuelle UTC:
Heure actuelle locale:
Météo à : SBFZ - Pinto Martins ( 37 km )
METAR: SBFZ 251600Z 10010KT 9999 BKN025 31/25 Q1011
TAF: TAF SBFZ 251630Z 2518/2618 12006KT 8000 SCT020 TN26/2609Z TX31/2618Z BECMG 2518/2520 10006KT BECMG 2600/2602 15006KT TEMPO 2602/2608 6000 TS BKN020 FEW030CB BECMG 2608/2610 17005KT BECMG 2612/2614 12006KT TEMPO 2614/2617 09012KT 6000 SCT020 FEW030TCU RMK PGW
Voir NOTAMs / SUP AIP / TFR affectant cet aéroport [VIEW]
Fréquences de communication: [VIEW]

Pistes:

Coordonnées de l'aéroport

Adresse: Pindoretama Brazil

Vue satellite de SIQN